sensor_id;sensor_type;location;lat;lon;timestamp;P1;durP1;ratioP1;P2;durP2;ratioP2
215;SDS011;70668;48.81286795;9.14184224;2023-09-19T00:02:05;9.83;;;2.00;;
215;SDS011;70668;48.81286795;9.14184224;2023-09-19T00:04:34;5.10;;;2.00;;
215;SDS011;70668;48.81286795;9.14184224;2023-09-19T00:07:04;4.20;;;2.10;;
215;SDS011;70668;48.81286795;9.14184224;2023-09-19T00:09:34;4.63;;;1.87;;
215;SDS011;70668;48.81286795;9.14184224;2023-09-19T00:12:04;4.87;;;2.10;;
215;SDS011;70668;48.81286795;9.14184224;2023-09-19T00:14:37;4.27;;;2.40;;
215;SDS011;70668;48.81286795;9.14184224;2023-09-19T00:17:05;4.53;;;1.90;;
215;SDS011;70668;48.81286795;9.14184224;2023-09-19T00:19:34;4.03;;;2.00;;
215;SDS011;70668;48.81286795;9.14184224;2023-09-19T00:22:03;8.13;;;2.20;;
215;SDS011;70668;48.81286795;9.14184224;2023-09-19T00:24:32;4.73;;;1.90;;
215;SDS011;70668;48.81286795;9.14184224;2023-09-19T00:27:01;4.07;;;1.90;;
215;SDS011;70668;48.81286795;9.14184224;2023-09-19T00:29:31;4.60;;;1.80;;
215;SDS011;70668;48.81286795;9.14184224;2023-09-19T00:32:02;4.90;;;2.23;;
215;SDS011;70668;48.81286795;9.14184224;2023-09-19T00:34:31;3.77;;;1.93;;
215;SDS011;70668;48.81286795;9.14184224;2023-09-19T00:36:59;4.50;;;2.07;;
215;SDS011;70668;48.81286795;9.14184224;2023-09-19T00:39:29;6.00;;;2.10;;
215;SDS011;70668;48.81286795;9.14184224;2023-09-19T00:41:58;4.23;;;2.00;;
215;SDS011;70668;48.81286795;9.14184224;2023-09-19T00:44:30;4.60;;;2.03;;
215;SDS011;70668;48.81286795;9.14184224;2023-09-19T00:47:02;5.03;;;2.00;;
215;SDS011;70668;48.81286795;9.14184224;2023-09-19T00:49:32;3.93;;;2.10;;
215;SDS011;70668;48.81286795;9.14184224;2023-09-19T00:52:00;2.90;;;1.83;;
215;SDS011;70668;48.81286795;9.14184224;2023-09-19T00:54:30;3.33;;;1.87;;
215;SDS011;70668;48.81286795;9.14184224;2023-09-19T00:56:59;4.03;;;1.97;;
215;SDS011;70668;48.81286795;9.14184224;2023-09-19T00:59:28;3.60;;;1.90;;
215;SDS011;70668;48.81286795;9.14184224;2023-09-19T01:01:57;3.70;;;2.00;;
215;SDS011;70668;48.81286795;9.14184224;2023-09-19T01:04:28;3.33;;;1.93;;
215;SDS011;70668;48.81286795;9.14184224;2023-09-19T01:06:56;4.63;;;2.07;;
215;SDS011;70668;48.81286795;9.14184224;2023-09-19T01:09:25;6.13;;;2.13;;
215;SDS011;70668;48.81286795;9.14184224;2023-09-19T01:11:57;5.00;;;2.20;;
215;SDS011;70668;48.81286795;9.14184224;2023-09-19T01:14:31;8.43;;;2.20;;
215;SDS011;70668;48.81286795;9.14184224;2023-09-19T01:17:07;4.27;;;1.90;;
215;SDS011;70668;48.81286795;9.14184224;2023-09-19T01:22:42;3.10;;;1.77;;
215;SDS011;70668;48.81286795;9.14184224;2023-09-19T01:25:24;3.40;;;1.80;;
215;SDS011;70668;48.81286795;9.14184224;2023-09-19T01:28:20;3.67;;;2.00;;
215;SDS011;70668;48.81286795;9.14184224;2023-09-19T01:31:06;2.90;;;1.80;;
215;SDS011;70668;48.81286795;9.14184224;2023-09-19T01:36:30;4.23;;;1.90;;
215;SDS011;70668;48.81286795;9.14184224;2023-09-19T01:39:04;5.33;;;1.90;;
215;SDS011;70668;48.81286795;9.14184224;2023-09-19T01:41:39;3.90;;;1.80;;
215;SDS011;70668;48.81286795;9.14184224;2023-09-19T01:44:16;4.37;;;2.10;;
215;SDS011;70668;48.81286795;9.14184224;2023-09-19T01:46:52;4.20;;;2.00;;
215;SDS011;70668;48.81286795;9.14184224;2023-09-19T01:49:28;4.50;;;1.70;;
215;SDS011;70668;48.81286795;9.14184224;2023-09-19T01:52:04;3.47;;;1.80;;
215;SDS011;70668;48.81286795;9.14184224;2023-09-19T01:54:40;3.33;;;1.70;;
215;SDS011;70668;48.81286795;9.14184224;2023-09-19T01:57:16;3.70;;;2.00;;
215;SDS011;70668;48.81286795;9.14184224;2023-09-19T01:59:57;3.50;;;1.90;;
215;SDS011;70668;48.81286795;9.14184224;2023-09-19T02:02:42;3.53;;;1.90;;
215;SDS011;70668;48.81286795;9.14184224;2023-09-19T02:05:21;4.17;;;1.87;;
215;SDS011;70668;48.81286795;9.14184224;2023-09-19T02:07:51;3.67;;;1.80;;
215;SDS011;70668;48.81286795;9.14184224;2023-09-19T02:10:21;3.50;;;1.97;;
215;SDS011;70668;48.81286795;9.14184224;2023-09-19T02:12:50;4.03;;;1.70;;
215;SDS011;70668;48.81286795;9.14184224;2023-09-19T02:15:19;3.87;;;1.90;;
215;SDS011;70668;48.81286795;9.14184224;2023-09-19T02:17:50;3.10;;;1.80;;
215;SDS011;70668;48.81286795;9.14184224;2023-09-19T02:20:22;4.17;;;1.77;;
215;SDS011;70668;48.81286795;9.14184224;2023-09-19T02:22:51;4.50;;;1.70;;
215;SDS011;70668;48.81286795;9.14184224;2023-09-19T02:25:20;5.23;;;2.20;;
215;SDS011;70668;48.81286795;9.14184224;2023-09-19T02:27:48;3.87;;;1.90;;
215;SDS011;70668;48.81286795;9.14184224;2023-09-19T02:30:19;3.87;;;1.80;;
215;SDS011;70668;48.81286795;9.14184224;2023-09-19T02:32:53;4.10;;;1.90;;
215;SDS011;70668;48.81286795;9.14184224;2023-09-19T02:35:22;3.30;;;1.90;;
215;SDS011;70668;48.81286795;9.14184224;2023-09-19T02:37:51;4.87;;;2.10;;
215;SDS011;70668;48.81286795;9.14184224;2023-09-19T02:40:20;3.37;;;1.80;;
215;SDS011;70668;48.81286795;9.14184224;2023-09-19T02:42:52;3.73;;;2.00;;
215;SDS011;70668;48.81286795;9.14184224;2023-09-19T02:45:24;5.57;;;1.93;;
215;SDS011;70668;48.81286795;9.14184224;2023-09-19T02:47:56;3.30;;;2.00;;
215;SDS011;70668;48.81286795;9.14184224;2023-09-19T02:50:25;4.33;;;1.90;;
215;SDS011;70668;48.81286795;9.14184224;2023-09-19T02:52:54;3.17;;;1.87;;
215;SDS011;70668;48.81286795;9.14184224;2023-09-19T02:55:22;3.73;;;2.00;;
215;SDS011;70668;48.81286795;9.14184224;2023-09-19T02:57:49;3.63;;;1.80;;
215;SDS011;70668;48.81286795;9.14184224;2023-09-19T03:00:20;5.00;;;1.80;;
215;SDS011;70668;48.81286795;9.14184224;2023-09-19T03:02:50;2.77;;;1.80;;
215;SDS011;70668;48.81286795;9.14184224;2023-09-19T03:05:23;4.60;;;2.00;;
215;SDS011;70668;48.81286795;9.14184224;2023-09-19T03:07:52;5.83;;;1.90;;
215;SDS011;70668;48.81286795;9.14184224;2023-09-19T03:10:21;3.80;;;1.70;;
215;SDS011;70668;48.81286795;9.14184224;2023-09-19T03:12:51;4.97;;;1.90;;
215;SDS011;70668;48.81286795;9.14184224;2023-09-19T03:15:20;3.30;;;1.80;;
215;SDS011;70668;48.81286795;9.14184224;2023-09-19T03:17:50;4.13;;;1.80;;
215;SDS011;70668;48.81286795;9.14184224;2023-09-19T03:20:24;3.17;;;1.73;;
215;SDS011;70668;48.81286795;9.14184224;2023-09-19T03:22:53;4.23;;;2.00;;
215;SDS011;70668;48.81286795;9.14184224;2023-09-19T03:25:22;4.93;;;1.90;;
215;SDS011;70668;48.81286795;9.14184224;2023-09-19T03:27:51;3.50;;;1.90;;
215;SDS011;70668;48.81286795;9.14184224;2023-09-19T03:30:22;3.83;;;1.90;;
215;SDS011;70668;48.81286795;9.14184224;2023-09-19T03:32:52;4.97;;;2.20;;
215;SDS011;70668;48.81286795;9.14184224;2023-09-19T03:35:20;4.20;;;1.90;;
215;SDS011;70668;48.81286795;9.14184224;2023-09-19T03:37:52;3.57;;;1.77;;
215;SDS011;70668;48.81286795;9.14184224;2023-09-19T03:40:21;4.60;;;1.83;;
215;SDS011;70668;48.81286795;9.14184224;2023-09-19T03:42:50;4.17;;;2.03;;
215;SDS011;70668;48.81286795;9.14184224;2023-09-19T03:45:20;3.53;;;1.90;;
215;SDS011;70668;48.81286795;9.14184224;2023-09-19T03:47:51;4.20;;;1.90;;
215;SDS011;70668;48.81286795;9.14184224;2023-09-19T03:50:22;3.80;;;2.10;;
215;SDS011;70668;48.81286795;9.14184224;2023-09-19T03:52:58;3.80;;;2.17;;
215;SDS011;70668;48.81286795;9.14184224;2023-09-19T03:55:27;4.90;;;1.90;;
215;SDS011;70668;48.81286795;9.14184224;2023-09-19T03:57:55;3.90;;;1.73;;
215;SDS011;70668;48.81286795;9.14184224;2023-09-19T04:00:24;3.80;;;1.90;;
215;SDS011;70668;48.81286795;9.14184224;2023-09-19T04:02:54;4.90;;;2.10;;
215;SDS011;70668;48.81286795;9.14184224;2023-09-19T04:05:23;5.10;;;2.20;;
215;SDS011;70668;48.81286795;9.14184224;2023-09-19T04:07:52;5.37;;;2.07;;
215;SDS011;70668;48.81286795;9.14184224;2023-09-19T04:10:24;3.60;;;2.00;;
215;SDS011;70668;48.81286795;9.14184224;2023-09-19T04:12:54;3.70;;;1.97;;
215;SDS011;70668;48.81286795;9.14184224;2023-09-19T04:15:23;5.07;;;2.20;;
215;SDS011;70668;48.81286795;9.14184224;2023-09-19T04:17:53;6.10;;;2.10;;
215;SDS011;70668;48.81286795;9.14184224;2023-09-19T04:20:22;3.90;;;2.27;;
215;SDS011;70668;48.81286795;9.14184224;2023-09-19T04:22:51;4.30;;;2.40;;
215;SDS011;70668;48.81286795;9.14184224;2023-09-19T04:25:19;3.83;;;2.20;;
215;SDS011;70668;48.81286795;9.14184224;2023-09-19T04:27:51;4.10;;;2.20;;
215;SDS011;70668;48.81286795;9.14184224;2023-09-19T04:30:19;3.60;;;2.40;;
215;SDS011;70668;48.81286795;9.14184224;2023-09-19T04:32:48;4.70;;;2.10;;
215;SDS011;70668;48.81286795;9.14184224;2023-09-19T04:35:18;4.53;;;2.40;;
215;SDS011;70668;48.81286795;9.14184224;2023-09-19T04:37:47;5.30;;;2.50;;
215;SDS011;70668;48.81286795;9.14184224;2023-09-19T04:40:16;4.90;;;2.43;;
215;SDS011;70668;48.81286795;9.14184224;2023-09-19T04:42:45;8.10;;;2.30;;
215;SDS011;70668;48.81286795;9.14184224;2023-09-19T04:45:23;4.57;;;2.20;;
215;SDS011;70668;48.81286795;9.14184224;2023-09-19T04:47:53;6.50;;;2.50;;
215;SDS011;70668;48.81286795;9.14184224;2023-09-19T04:50:21;4.07;;;2.43;;
215;SDS011;70668;48.81286795;9.14184224;2023-09-19T04:52:52;5.30;;;2.60;;
215;SDS011;70668;48.81286795;9.14184224;2023-09-19T04:55:20;3.73;;;2.57;;
215;SDS011;70668;48.81286795;9.14184224;2023-09-19T04:57:49;6.93;;;2.60;;
215;SDS011;70668;48.81286795;9.14184224;2023-09-19T05:00:19;4.30;;;2.37;;
215;SDS011;70668;48.81286795;9.14184224;2023-09-19T05:02:52;4.43;;;2.30;;
215;SDS011;70668;48.81286795;9.14184224;2023-09-19T05:05:23;5.50;;;2.20;;
215;SDS011;70668;48.81286795;9.14184224;2023-09-19T05:07:52;4.37;;;2.37;;
215;SDS011;70668;48.81286795;9.14184224;2023-09-19T05:10:21;10.93;;;2.40;;
215;SDS011;70668;48.81286795;9.14184224;2023-09-19T05:12:52;5.33;;;2.30;;
215;SDS011;70668;48.81286795;9.14184224;2023-09-19T05:15:21;5.40;;;2.63;;
215;SDS011;70668;48.81286795;9.14184224;2023-09-19T05:17:52;4.47;;;2.47;;
215;SDS011;70668;48.81286795;9.14184224;2023-09-19T05:20:21;4.00;;;2.30;;
215;SDS011;70668;48.81286795;9.14184224;2023-09-19T05:22:58;5.50;;;2.80;;
215;SDS011;70668;48.81286795;9.14184224;2023-09-19T05:25:28;5.80;;;2.60;;
215;SDS011;70668;48.81286795;9.14184224;2023-09-19T05:27:57;4.60;;;2.67;;
215;SDS011;70668;48.81286795;9.14184224;2023-09-19T05:30:28;5.40;;;2.70;;
215;SDS011;70668;48.81286795;9.14184224;2023-09-19T05:33:00;12.10;;;3.20;;
215;SDS011;70668;48.81286795;9.14184224;2023-09-19T05:35:29;5.43;;;2.87;;
215;SDS011;70668;48.81286795;9.14184224;2023-09-19T05:37:58;8.63;;;3.20;;
215;SDS011;70668;48.81286795;9.14184224;2023-09-19T05:40:27;6.60;;;3.03;;
215;SDS011;70668;48.81286795;9.14184224;2023-09-19T05:42:55;7.43;;;3.00;;
215;SDS011;70668;48.81286795;9.14184224;2023-09-19T05:45:24;5.27;;;2.77;;
215;SDS011;70668;48.81286795;9.14184224;2023-09-19T05:47:52;6.37;;;3.07;;
215;SDS011;70668;48.81286795;9.14184224;2023-09-19T05:50:32;6.33;;;3.10;;
215;SDS011;70668;48.81286795;9.14184224;2023-09-19T05:53:01;9.00;;;3.40;;
215;SDS011;70668;48.81286795;9.14184224;2023-09-19T05:55:30;5.30;;;3.03;;
215;SDS011;70668;48.81286795;9.14184224;2023-09-19T05:57:58;6.00;;;2.93;;
215;SDS011;70668;48.81286795;9.14184224;2023-09-19T06:00:28;6.90;;;3.40;;
215;SDS011;70668;48.81286795;9.14184224;2023-09-19T06:02:57;5.27;;;3.10;;
215;SDS011;70668;48.81286795;9.14184224;2023-09-19T06:05:27;9.10;;;3.20;;
215;SDS011;70668;48.81286795;9.14184224;2023-09-19T06:07:59;6.10;;;3.30;;
215;SDS011;70668;48.81286795;9.14184224;2023-09-19T06:10:33;7.00;;;3.43;;
215;SDS011;70668;48.81286795;9.14184224;2023-09-19T06:13:01;7.37;;;3.60;;
215;SDS011;70668;48.81286795;9.14184224;2023-09-19T06:15:31;6.60;;;3.70;;
215;SDS011;70668;48.81286795;9.14184224;2023-09-19T06:18:01;6.63;;;3.37;;
215;SDS011;70668;48.81286795;9.14184224;2023-09-19T06:20:30;7.33;;;3.60;;
215;SDS011;70668;48.81286795;9.14184224;2023-09-19T06:23:02;6.10;;;3.60;;
215;SDS011;70668;48.81286795;9.14184224;2023-09-19T06:25:31;7.67;;;4.00;;
215;SDS011;70668;48.81286795;9.14184224;2023-09-19T06:27:59;8.50;;;3.70;;
215;SDS011;70668;48.81286795;9.14184224;2023-09-19T06:30:30;5.57;;;3.57;;
215;SDS011;70668;48.81286795;9.14184224;2023-09-19T06:33:00;9.10;;;3.50;;
215;SDS011;70668;48.81286795;9.14184224;2023-09-19T06:35:30;6.90;;;3.60;;
215;SDS011;70668;48.81286795;9.14184224;2023-09-19T06:38:04;8.60;;;3.53;;
215;SDS011;70668;48.81286795;9.14184224;2023-09-19T06:40:33;7.13;;;3.80;;
215;SDS011;70668;48.81286795;9.14184224;2023-09-19T06:43:02;6.20;;;3.70;;
215;SDS011;70668;48.81286795;9.14184224;2023-09-19T06:45:33;6.77;;;3.60;;
215;SDS011;70668;48.81286795;9.14184224;2023-09-19T06:48:02;5.40;;;3.40;;
215;SDS011;70668;48.81286795;9.14184224;2023-09-19T06:50:32;6.80;;;3.40;;
215;SDS011;70668;48.81286795;9.14184224;2023-09-19T06:53:03;7.17;;;3.40;;
215;SDS011;70668;48.81286795;9.14184224;2023-09-19T06:55:32;6.33;;;3.73;;
215;SDS011;70668;48.81286795;9.14184224;2023-09-19T06:58:01;9.20;;;3.60;;
215;SDS011;70668;48.81286795;9.14184224;2023-09-19T07:00:31;7.63;;;3.37;;
215;SDS011;70668;48.81286795;9.14184224;2023-09-19T07:03:02;9.03;;;3.70;;
215;SDS011;70668;48.81286795;9.14184224;2023-09-19T07:05:34;12.10;;;3.80;;
215;SDS011;70668;48.81286795;9.14184224;2023-09-19T07:08:07;14.50;;;3.90;;
215;SDS011;70668;48.81286795;9.14184224;2023-09-19T07:10:38;6.20;;;3.30;;
215;SDS011;70668;48.81286795;9.14184224;2023-09-19T07:13:10;7.27;;;3.67;;
215;SDS011;70668;48.81286795;9.14184224;2023-09-19T07:15:42;6.03;;;2.97;;
215;SDS011;70668;48.81286795;9.14184224;2023-09-19T07:18:12;9.20;;;4.00;;
215;SDS011;70668;48.81286795;9.14184224;2023-09-19T07:20:41;7.80;;;3.60;;
215;SDS011;70668;48.81286795;9.14184224;2023-09-19T07:23:16;7.87;;;3.63;;
215;SDS011;70668;48.81286795;9.14184224;2023-09-19T07:25:46;6.83;;;3.60;;
215;SDS011;70668;48.81286795;9.14184224;2023-09-19T07:28:14;7.60;;;3.60;;
215;SDS011;70668;48.81286795;9.14184224;2023-09-19T07:30:43;7.37;;;3.73;;
215;SDS011;70668;48.81286795;9.14184224;2023-09-19T07:33:12;7.23;;;3.63;;
215;SDS011;70668;48.81286795;9.14184224;2023-09-19T07:35:40;7.47;;;3.60;;
215;SDS011;70668;48.81286795;9.14184224;2023-09-19T07:38:14;7.60;;;3.33;;
215;SDS011;70668;48.81286795;9.14184224;2023-09-19T07:40:46;7.57;;;3.63;;
215;SDS011;70668;48.81286795;9.14184224;2023-09-19T07:43:14;10.20;;;3.07;;
215;SDS011;70668;48.81286795;9.14184224;2023-09-19T07:45:43;6.70;;;3.10;;
215;SDS011;70668;48.81286795;9.14184224;2023-09-19T07:48:12;9.60;;;3.30;;
215;SDS011;70668;48.81286795;9.14184224;2023-09-19T07:50:41;7.40;;;3.20;;
215;SDS011;70668;48.81286795;9.14184224;2023-09-19T07:53:11;6.90;;;3.27;;
215;SDS011;70668;48.81286795;9.14184224;2023-09-19T07:55:45;5.73;;;3.50;;
215;SDS011;70668;48.81286795;9.14184224;2023-09-19T07:58:14;6.10;;;3.53;;
215;SDS011;70668;48.81286795;9.14184224;2023-09-19T08:00:43;7.70;;;3.03;;
215;SDS011;70668;48.81286795;9.14184224;2023-09-19T08:03:12;7.13;;;3.40;;
215;SDS011;70668;48.81286795;9.14184224;2023-09-19T08:05:41;5.77;;;3.10;;
215;SDS011;70668;48.81286795;9.14184224;2023-09-19T08:08:10;5.77;;;3.20;;
215;SDS011;70668;48.81286795;9.14184224;2023-09-19T08:10:39;5.80;;;3.33;;
215;SDS011;70668;48.81286795;9.14184224;2023-09-19T08:13:13;7.37;;;2.80;;
215;SDS011;70668;48.81286795;9.14184224;2023-09-19T08:15:43;6.57;;;2.90;;
215;SDS011;70668;48.81286795;9.14184224;2023-09-19T08:18:13;6.20;;;2.80;;
215;SDS011;70668;48.81286795;9.14184224;2023-09-19T08:20:42;4.80;;;2.70;;
215;SDS011;70668;48.81286795;9.14184224;2023-09-19T08:23:11;8.03;;;3.17;;
215;SDS011;70668;48.81286795;9.14184224;2023-09-19T08:25:40;5.90;;;3.00;;
215;SDS011;70668;48.81286795;9.14184224;2023-09-19T08:28:09;5.00;;;2.90;;
215;SDS011;70668;48.81286795;9.14184224;2023-09-19T08:30:46;7.43;;;2.83;;
215;SDS011;70668;48.81286795;9.14184224;2023-09-19T08:33:16;5.40;;;2.90;;
215;SDS011;70668;48.81286795;9.14184224;2023-09-19T08:35:45;6.23;;;3.10;;
215;SDS011;70668;48.81286795;9.14184224;2023-09-19T08:38:13;4.63;;;2.70;;
215;SDS011;70668;48.81286795;9.14184224;2023-09-19T08:40:42;6.47;;;2.87;;
215;SDS011;70668;48.81286795;9.14184224;2023-09-19T08:43:10;5.90;;;2.83;;
215;SDS011;70668;48.81286795;9.14184224;2023-09-19T08:45:39;5.60;;;2.67;;
215;SDS011;70668;48.81286795;9.14184224;2023-09-19T08:48:16;4.97;;;2.67;;
215;SDS011;70668;48.81286795;9.14184224;2023-09-19T08:50:49;5.73;;;2.67;;
215;SDS011;70668;48.81286795;9.14184224;2023-09-19T08:53:21;4.57;;;2.53;;
215;SDS011;70668;48.81286795;9.14184224;2023-09-19T08:55:57;6.30;;;2.40;;
215;SDS011;70668;48.81286795;9.14184224;2023-09-19T08:58:30;5.73;;;2.40;;
215;SDS011;70668;48.81286795;9.14184224;2023-09-19T09:01:07;7.10;;;2.33;;
215;SDS011;70668;48.81286795;9.14184224;2023-09-19T09:03:40;4.53;;;2.30;;
215;SDS011;70668;48.81286795;9.14184224;2023-09-19T09:06:11;3.80;;;2.60;;
215;SDS011;70668;48.81286795;9.14184224;2023-09-19T09:08:42;4.63;;;2.53;;
215;SDS011;70668;48.81286795;9.14184224;2023-09-19T09:11:11;8.70;;;2.63;;
215;SDS011;70668;48.81286795;9.14184224;2023-09-19T09:13:41;5.13;;;2.40;;
215;SDS011;70668;48.81286795;9.14184224;2023-09-19T09:16:10;5.27;;;2.57;;
215;SDS011;70668;48.81286795;9.14184224;2023-09-19T09:18:41;5.57;;;2.20;;
215;SDS011;70668;48.81286795;9.14184224;2023-09-19T09:21:10;5.23;;;2.50;;
215;SDS011;70668;48.81286795;9.14184224;2023-09-19T09:23:41;5.90;;;2.50;;
215;SDS011;70668;48.81286795;9.14184224;2023-09-19T09:26:09;4.83;;;2.63;;
215;SDS011;70668;48.81286795;9.14184224;2023-09-19T09:28:44;5.63;;;2.73;;
215;SDS011;70668;48.81286795;9.14184224;2023-09-19T09:31:21;5.90;;;2.70;;
215;SDS011;70668;48.81286795;9.14184224;2023-09-19T09:33:56;3.63;;;2.40;;
215;SDS011;70668;48.81286795;9.14184224;2023-09-19T09:36:34;6.90;;;2.53;;
215;SDS011;70668;48.81286795;9.14184224;2023-09-19T09:39:04;5.80;;;2.47;;
215;SDS011;70668;48.81286795;9.14184224;2023-09-19T09:41:44;6.13;;;2.30;;
215;SDS011;70668;48.81286795;9.14184224;2023-09-19T09:44:13;4.60;;;2.30;;
215;SDS011;70668;48.81286795;9.14184224;2023-09-19T09:46:44;5.07;;;2.73;;
215;SDS011;70668;48.81286795;9.14184224;2023-09-19T09:49:45;6.30;;;2.70;;
215;SDS011;70668;48.81286795;9.14184224;2023-09-19T09:52:19;4.47;;;2.53;;
215;SDS011;70668;48.81286795;9.14184224;2023-09-19T09:54:58;4.70;;;2.50;;
215;SDS011;70668;48.81286795;9.14184224;2023-09-19T09:57:30;5.00;;;2.50;;
215;SDS011;70668;48.81286795;9.14184224;2023-09-19T10:00:00;4.10;;;2.27;;
215;SDS011;70668;48.81286795;9.14184224;2023-09-19T10:02:41;8.43;;;2.80;;
215;SDS011;70668;48.81286795;9.14184224;2023-09-19T10:05:15;5.97;;;2.53;;
215;SDS011;70668;48.81286795;9.14184224;2023-09-19T10:07:58;6.90;;;2.60;;
215;SDS011;70668;48.81286795;9.14184224;2023-09-19T10:10:44;5.20;;;2.80;;
215;SDS011;70668;48.81286795;9.14184224;2023-09-19T10:13:19;6.47;;;2.40;;
215;SDS011;70668;48.81286795;9.14184224;2023-09-19T10:15:49;8.37;;;2.37;;
215;SDS011;70668;48.81286795;9.14184224;2023-09-19T10:18:20;4.93;;;2.60;;
215;SDS011;70668;48.81286795;9.14184224;2023-09-19T10:20:53;4.47;;;2.50;;
215;SDS011;70668;48.81286795;9.14184224;2023-09-19T10:23:22;4.20;;;2.23;;
215;SDS011;70668;48.81286795;9.14184224;2023-09-19T10:25:52;5.57;;;2.50;;
215;SDS011;70668;48.81286795;9.14184224;2023-09-19T10:28:22;6.80;;;2.60;;
215;SDS011;70668;48.81286795;9.14184224;2023-09-19T10:30:52;6.20;;;2.40;;
215;SDS011;70668;48.81286795;9.14184224;2023-09-19T10:33:22;4.87;;;2.50;;
215;SDS011;70668;48.81286795;9.14184224;2023-09-19T10:35:54;4.80;;;2.40;;
215;SDS011;70668;48.81286795;9.14184224;2023-09-19T10:38:27;7.90;;;2.10;;
215;SDS011;70668;48.81286795;9.14184224;2023-09-19T10:40:57;4.20;;;2.37;;
215;SDS011;70668;48.81286795;9.14184224;2023-09-19T10:43:29;4.97;;;2.30;;
215;SDS011;70668;48.81286795;9.14184224;2023-09-19T10:46:01;4.80;;;2.40;;
215;SDS011;70668;48.81286795;9.14184224;2023-09-19T10:48:32;6.07;;;2.20;;
215;SDS011;70668;48.81286795;9.14184224;2023-09-19T10:51:04;5.00;;;2.30;;
215;SDS011;70668;48.81286795;9.14184224;2023-09-19T10:53:41;6.30;;;2.40;;
215;SDS011;70668;48.81286795;9.14184224;2023-09-19T10:56:15;5.53;;;2.13;;
215;SDS011;70668;48.81286795;9.14184224;2023-09-19T10:58:49;5.03;;;2.30;;
215;SDS011;70668;48.81286795;9.14184224;2023-09-19T11:01:18;8.40;;;2.20;;
215;SDS011;70668;48.81286795;9.14184224;2023-09-19T11:03:50;4.40;;;2.17;;
215;SDS011;70668;48.81286795;9.14184224;2023-09-19T11:09:46;6.43;;;2.43;;
215;SDS011;70668;48.81286795;9.14184224;2023-09-19T11:24:33;5.20;;;2.20;;
215;SDS011;70668;48.81286795;9.14184224;2023-09-19T11:27:12;3.83;;;2.10;;
215;SDS011;70668;48.81286795;9.14184224;2023-09-19T11:29:43;7.60;;;2.93;;
215;SDS011;70668;48.81286795;9.14184224;2023-09-19T11:32:14;4.83;;;2.40;;
215;SDS011;70668;48.81286795;9.14184224;2023-09-19T11:34:48;6.17;;;2.20;;
215;SDS011;70668;48.81286795;9.14184224;2023-09-19T11:40:46;5.70;;;2.20;;
215;SDS011;70668;48.81286795;9.14184224;2023-09-19T11:43:32;4.73;;;2.00;;
215;SDS011;70668;48.81286795;9.14184224;2023-09-19T11:46:05;3.50;;;1.83;;
215;SDS011;70668;48.81286795;9.14184224;2023-09-19T11:48:32;5.27;;;2.10;;
215;SDS011;70668;48.81286795;9.14184224;2023-09-19T11:51:10;4.40;;;2.07;;
215;SDS011;70668;48.81286795;9.14184224;2023-09-19T11:53:45;13.70;;;2.80;;
215;SDS011;70668;48.81286795;9.14184224;2023-09-19T11:56:21;5.23;;;2.13;;
215;SDS011;70668;48.81286795;9.14184224;2023-09-19T11:58:53;5.57;;;2.03;;
215;SDS011;70668;48.81286795;9.14184224;2023-09-19T12:01:25;4.07;;;2.00;;
215;SDS011;70668;48.81286795;9.14184224;2023-09-19T12:03:58;4.40;;;2.03;;
215;SDS011;70668;48.81286795;9.14184224;2023-09-19T12:06:27;3.60;;;1.93;;
215;SDS011;70668;48.81286795;9.14184224;2023-09-19T12:08:57;4.40;;;2.20;;
215;SDS011;70668;48.81286795;9.14184224;2023-09-19T12:11:40;4.70;;;2.00;;
215;SDS011;70668;48.81286795;9.14184224;2023-09-19T12:14:10;5.67;;;2.17;;
215;SDS011;70668;48.81286795;9.14184224;2023-09-19T12:16:39;4.10;;;2.17;;
215;SDS011;70668;48.81286795;9.14184224;2023-09-19T12:21:54;3.63;;;2.00;;
215;SDS011;70668;48.81286795;9.14184224;2023-09-19T12:24:25;4.70;;;2.33;;
215;SDS011;70668;48.81286795;9.14184224;2023-09-19T12:26:59;5.20;;;2.30;;
215;SDS011;70668;48.81286795;9.14184224;2023-09-19T12:29:30;3.97;;;2.33;;
215;SDS011;70668;48.81286795;9.14184224;2023-09-19T12:32:01;5.13;;;2.30;;
215;SDS011;70668;48.81286795;9.14184224;2023-09-19T12:34:31;4.47;;;2.33;;
215;SDS011;70668;48.81286795;9.14184224;2023-09-19T12:37:08;10.93;;;2.33;;
215;SDS011;70668;48.81286795;9.14184224;2023-09-19T12:39:41;5.50;;;2.30;;
215;SDS011;70668;48.81286795;9.14184224;2023-09-19T12:42:17;6.30;;;2.40;;
215;SDS011;70668;48.81286795;9.14184224;2023-09-19T12:44:47;4.30;;;2.30;;
215;SDS011;70668;48.81286795;9.14184224;2023-09-19T12:47:22;4.53;;;2.20;;
215;SDS011;70668;48.81286795;9.14184224;2023-09-19T12:50:07;6.33;;;2.47;;
215;SDS011;70668;48.81286795;9.14184224;2023-09-19T12:52:43;4.50;;;2.30;;
215;SDS011;70668;48.81286795;9.14184224;2023-09-19T12:55:20;5.87;;;2.10;;
215;SDS011;70668;48.81286795;9.14184224;2023-09-19T12:58:00;5.73;;;2.40;;
215;SDS011;70668;48.81286795;9.14184224;2023-09-19T13:00:35;5.20;;;2.10;;
215;SDS011;70668;48.81286795;9.14184224;2023-09-19T13:03:09;4.53;;;2.43;;
215;SDS011;70668;48.81286795;9.14184224;2023-09-19T13:05:50;5.27;;;2.40;;
215;SDS011;70668;48.81286795;9.14184224;2023-09-19T13:08:24;5.10;;;2.40;;
215;SDS011;70668;48.81286795;9.14184224;2023-09-19T13:11:01;5.53;;;2.47;;
215;SDS011;70668;48.81286795;9.14184224;2023-09-19T13:13:38;4.90;;;2.17;;
215;SDS011;70668;48.81286795;9.14184224;2023-09-19T13:16:09;5.07;;;2.47;;
215;SDS011;70668;48.81286795;9.14184224;2023-09-19T13:18:46;5.13;;;2.37;;
215;SDS011;70668;48.81286795;9.14184224;2023-09-19T13:21:26;5.63;;;2.30;;
215;SDS011;70668;48.81286795;9.14184224;2023-09-19T13:24:17;5.07;;;2.13;;
215;SDS011;70668;48.81286795;9.14184224;2023-09-19T13:26:48;4.80;;;2.37;;
215;SDS011;70668;48.81286795;9.14184224;2023-09-19T13:29:19;5.57;;;2.20;;
215;SDS011;70668;48.81286795;9.14184224;2023-09-19T13:31:47;6.87;;;2.57;;
215;SDS011;70668;48.81286795;9.14184224;2023-09-19T13:34:18;6.50;;;2.60;;
215;SDS011;70668;48.81286795;9.14184224;2023-09-19T13:36:47;5.60;;;2.50;;
215;SDS011;70668;48.81286795;9.14184224;2023-09-19T13:39:16;5.03;;;2.47;;
215;SDS011;70668;48.81286795;9.14184224;2023-09-19T13:41:45;5.00;;;2.50;;
215;SDS011;70668;48.81286795;9.14184224;2023-09-19T13:44:15;4.50;;;2.47;;
215;SDS011;70668;48.81286795;9.14184224;2023-09-19T13:46:47;4.13;;;2.43;;
215;SDS011;70668;48.81286795;9.14184224;2023-09-19T13:49:16;4.13;;;2.30;;
215;SDS011;70668;48.81286795;9.14184224;2023-09-19T13:51:46;4.17;;;2.50;;
215;SDS011;70668;48.81286795;9.14184224;2023-09-19T13:54:15;4.93;;;2.53;;
215;SDS011;70668;48.81286795;9.14184224;2023-09-19T13:56:44;5.60;;;2.40;;
215;SDS011;70668;48.81286795;9.14184224;2023-09-19T13:59:13;4.80;;;2.20;;
215;SDS011;70668;48.81286795;9.14184224;2023-09-19T14:01:41;6.10;;;2.40;;
215;SDS011;70668;48.81286795;9.14184224;2023-09-19T14:04:14;4.97;;;2.40;;